Time;durP1;ratioP1;P1;durP2;ratioP2;P2;SDS_P1;SDS_P2;PMS_P1;PMS_P2;Temp;Humidity;BMP_temperature;BMP_pressure;BME280_temperature;BME280_humidity;BME280_pressure;Samples;Min_cycle;Max_cycle;Signal;HPM_P1;HPM_P2
2021/01/13 00:01:11;;;;;;;20.15;8.80;;;;;;;;;;5144478;27;20182;-89
2021/01/13 00:03:37;;;;;;;21.33;9.52;;;;;;;;;;5150987;27;20227;-89
2021/01/13 00:06:03;;;;;;;19.63;8.70;;;;;;;;;;5153836;27;20182;-88
2021/01/13 00:08:29;;;;;;;15.70;9.43;;;;;;;;;;5143015;27;20177;-89
2021/01/13 00:10:55;;;;;;;17.00;8.60;;;;;;;;;;5157754;27;20205;-89
2021/01/13 00:13:21;;;;;;;23.30;9.77;;;;;;;;;;5142180;27;20218;-89
2021/01/13 00:15:47;;;;;;;16.35;9.85;;;;;;;;;;5153613;27;20188;-90
2021/01/13 00:18:16;;;;;;;14.27;8.77;;;;;;;;;;5162018;27;20177;-89
2021/01/13 00:21:08;;;;;;;16.35;8.82;;;;;;;;;;5166031;27;20170;-88
2021/01/13 00:23:45;;;;;;;21.55;9.93;;;;;;;;;;5132164;27;20362;-88
2021/01/13 00:26:21;;;;;;;16.83;9.68;;;;;;;;;;5145697;27;20257;-88
2021/01/13 00:28:53;;;;;;;17.00;10.35;;;;;;;;;;5148770;27;20721;-88
2021/01/13 00:31:24;;;;;;;20.15;11.65;;;;;;;;;;5148190;27;20186;-89
2021/01/13 00:34:19;;;;;;;23.80;10.90;;;;;;;;;;5147646;27;20198;-88
2021/01/13 00:36:54;;;;;;;23.40;9.70;;;;;;;;;;5142076;27;20261;-90
2021/01/13 00:39:20;;;;;;;21.17;9.85;;;;;;;;;;5164679;27;20185;-89
2021/01/13 00:42:00;;;;;;;19.90;10.00;;;;;;;;;;5145777;27;20185;-89
2021/01/13 00:44:29;;;;;;;15.98;9.10;;;;;;;;;;5147690;27;20178;-89
2021/01/13 00:47:00;;;;;;;17.50;9.50;;;;;;;;;;5146651;27;20182;-89
2021/01/13 00:49:26;;;;;;;17.85;10.20;;;;;;;;;;5148076;27;20178;-88
2021/01/13 00:51:52;;;;;;;21.23;12.02;;;;;;;;;;5148168;27;20188;-88
2021/01/13 00:54:21;;;;;;;19.73;10.32;;;;;;;;;;5166935;27;20201;-89
2021/01/13 00:56:48;;;;;;;22.10;10.70;;;;;;;;;;5148152;27;20170;-88
2021/01/13 00:59:16;;;;;;;20.23;10.52;;;;;;;;;;5147587;27;20190;-89
2021/01/13 01:01:43;;;;;;;22.63;10.80;;;;;;;;;;5146843;27;20178;-88
2021/01/13 01:04:10;;;;;;;20.52;10.57;;;;;;;;;;5148073;27;20274;-89
2021/01/13 01:06:36;;;;;;;23.27;11.55;;;;;;;;;;5147214;27;20185;-89
2021/01/13 01:09:18;;;;;;;22.25;10.55;;;;;;;;;;5146949;27;20173;-89
2021/01/13 01:11:52;;;;;;;23.60;11.40;;;;;;;;;;5115515;28;20216;-88
2021/01/13 01:14:18;;;;;;;22.98;11.60;;;;;;;;;;5101216;28;20373;-88
2021/01/13 01:16:44;;;;;;;18.98;11.73;;;;;;;;;;5099299;28;20195;-89
2021/01/13 01:19:10;;;;;;;22.45;12.43;;;;;;;;;;5102713;28;20214;-88
2021/01/13 01:21:43;;;;;;;21.77;11.80;;;;;;;;;;5104761;28;20183;-89
2021/01/13 01:24:12;;;;;;;25.05;12.32;;;;;;;;;;5098481;28;20220;-89
2021/01/13 01:26:53;;;;;;;21.50;10.90;;;;;;;;;;5098328;28;20206;-89
2021/01/13 01:29:19;;;;;;;20.52;10.85;;;;;;;;;;5115967;28;20685;-88
2021/01/13 01:31:53;;;;;;;19.67;12.37;;;;;;;;;;5104834;28;20210;-86
2021/01/13 01:34:20;;;;;;;23.45;10.45;;;;;;;;;;5104994;28;20492;-88
2021/01/13 01:36:46;;;;;;;15.70;10.35;;;;;;;;;;5121858;28;20225;-88
2021/01/13 01:39:12;;;;;;;20.27;10.50;;;;;;;;;;5099487;28;20215;-88
2021/01/13 01:41:38;;;;;;;18.90;10.73;;;;;;;;;;5101906;27;20167;-89
2021/01/13 01:44:04;;;;;;;17.83;10.02;;;;;;;;;;5146765;27;20188;-88
2021/01/13 01:46:30;;;;;;;19.85;10.27;;;;;;;;;;5147389;27;20173;-88
2021/01/13 01:48:58;;;;;;;22.83;9.35;;;;;;;;;;5146172;27;20189;-88
2021/01/13 01:51:25;;;;;;;30.85;10.88;;;;;;;;;;5158216;27;20178;-88
2021/01/13 01:54:07;;;;;;;24.70;11.43;;;;;;;;;;5143732;27;20189;-88
2021/01/13 01:56:40;;;;;;;22.08;11.30;;;;;;;;;;5147180;27;20173;-89
2021/01/13 01:59:09;;;;;;;23.90;11.50;;;;;;;;;;5140481;27;20179;-89
2021/01/13 02:01:36;;;;;;;28.48;11.80;;;;;;;;;;5146817;27;20198;-88
2021/01/13 02:04:06;;;;;;;27.77;12.95;;;;;;;;;;5146434;27;20186;-89
2021/01/13 02:06:32;;;;;;;29.88;12.00;;;;;;;;;;5142498;27;20189;-88
2021/01/13 02:08:58;;;;;;;29.75;11.93;;;;;;;;;;5146248;27;20177;-89
2021/01/13 02:11:26;;;;;;;25.40;11.30;;;;;;;;;;5141474;27;20173;-89
2021/01/13 02:13:52;;;;;;;21.45;10.50;;;;;;;;;;5146099;27;20244;-89
2021/01/13 02:16:19;;;;;;;16.10;10.43;;;;;;;;;;5143975;27;20182;-88
2021/01/13 02:18:48;;;;;;;25.60;11.70;;;;;;;;;;5162412;27;20193;-88
2021/01/13 02:21:15;;;;;;;17.88;10.02;;;;;;;;;;5146596;27;20173;-88
2021/01/13 02:24:07;;;;;;;31.25;10.85;;;;;;;;;;5141994;27;20267;-89
2021/01/13 02:26:52;;;;;;;19.77;10.68;;;;;;;;;;5055769;28;20192;-88
2021/01/13 02:29:38;;;;;;;24.23;11.80;;;;;;;;;;5059614;28;20223;-89
2021/01/13 02:32:26;;;;;;;24.50;10.27;;;;;;;;;;5038261;28;20207;-88
2021/01/13 02:35:03;;;;;;;23.88;10.55;;;;;;;;;;5046087;28;20184;-89
2021/01/13 02:37:29;;;;;;;24.48;12.38;;;;;;;;;;5043226;28;20253;-89
2021/01/13 02:39:56;;;;;;;23.90;11.73;;;;;;;;;;5046841;28;20184;-88
2021/01/13 02:42:23;;;;;;;26.45;11.00;;;;;;;;;;5061131;28;20546;-87
2021/01/13 02:45:02;;;;;;;32.17;11.10;;;;;;;;;;5048761;28;20181;-87
2021/01/13 02:47:32;;;;;;;25.88;11.20;;;;;;;;;;5043265;28;20185;-86
2021/01/13 02:49:59;;;;;;;23.52;11.48;;;;;;;;;;5045581;28;20205;-87
2021/01/13 02:52:26;;;;;;;25.88;11.77;;;;;;;;;;5043573;28;20211;-87
2021/01/13 02:54:54;;;;;;;22.75;10.85;;;;;;;;;;5063324;28;20181;-88
2021/01/13 02:57:21;;;;;;;33.83;12.50;;;;;;;;;;5054626;28;20204;-87
2021/01/13 02:59:50;;;;;;;29.33;12.55;;;;;;;;;;5036437;28;20351;-86
2021/01/13 03:02:17;;;;;;;20.60;11.85;;;;;;;;;;5052453;27;20622;-87
2021/01/13 03:04:43;;;;;;;25.40;13.27;;;;;;;;;;5142935;27;20178;-87
2021/01/13 03:07:13;;;;;;;35.53;12.15;;;;;;;;;;5149845;27;20186;-87
2021/01/13 03:09:41;;;;;;;22.92;12.27;;;;;;;;;;5148365;27;20265;-87
2021/01/13 03:12:16;;;;;;;30.40;11.70;;;;;;;;;;5148904;27;20242;-89
2021/01/13 03:14:44;;;;;;;29.10;11.75;;;;;;;;;;5149739;27;20173;-87
2021/01/13 03:17:12;;;;;;;30.55;12.07;;;;;;;;;;5149631;27;20201;-88
2021/01/13 03:19:57;;;;;;;24.85;10.65;;;;;;;;;;5145985;27;20634;-87
2021/01/13 03:22:26;;;;;;;22.35;11.98;;;;;;;;;;5149950;27;20173;-87
2021/01/13 03:24:55;;;;;;;27.50;13.30;;;;;;;;;;5149723;27;20196;-87
2021/01/13 03:27:22;;;;;;;30.65;11.50;;;;;;;;;;5149352;27;20634;-88
2021/01/13 03:29:48;;;;;;;26.42;11.43;;;;;;;;;;5147552;27;20277;-87
2021/01/13 03:32:19;;;;;;;31.90;11.40;;;;;;;;;;5149463;27;20227;-88
2021/01/13 03:34:45;;;;;;;22.92;10.10;;;;;;;;;;5149266;27;20180;-87
2021/01/13 03:37:16;;;;;;;49.63;11.50;;;;;;;;;;5149364;27;20206;-87
2021/01/13 03:39:43;;;;;;;33.83;11.80;;;;;;;;;;5149745;27;20756;-87
2021/01/13 03:42:16;;;;;;;30.33;11.85;;;;;;;;;;5149410;27;20174;-88
2021/01/13 03:44:44;;;;;;;32.67;11.10;;;;;;;;;;5149081;27;20176;-88
2021/01/13 03:47:10;;;;;;;37.63;11.95;;;;;;;;;;5164355;27;20185;-87
2021/01/13 03:49:40;;;;;;;36.90;10.60;;;;;;;;;;5147353;27;20205;-88
2021/01/13 03:52:08;;;;;;;30.80;11.05;;;;;;;;;;5149667;27;20980;-87
2021/01/13 03:54:35;;;;;;;23.48;12.57;;;;;;;;;;5146675;27;20194;-89
2021/01/13 03:57:05;;;;;;;28.67;12.27;;;;;;;;;;5149019;27;20241;-86
2021/01/13 03:59:51;;;;;;;26.08;11.27;;;;;;;;;;5149126;27;20182;-89
2021/01/13 04:02:18;;;;;;;30.80;11.68;;;;;;;;;;5148976;27;20180;-88
2021/01/13 04:04:49;;;;;;;36.45;13.20;;;;;;;;;;5149113;27;20235;-88
2021/01/13 04:07:16;;;;;;;25.85;11.18;;;;;;;;;;5147457;27;20662;-89
2021/01/13 04:09:42;;;;;;;32.47;12.93;;;;;;;;;;5156602;27;20192;-88
2021/01/13 04:12:09;;;;;;;33.78;12.00;;;;;;;;;;5148340;27;20225;-87
2021/01/13 04:14:55;;;;;;;35.25;12.38;;;;;;;;;;5147350;27;20178;-87
2021/01/13 04:17:22;;;;;;;32.22;11.82;;;;;;;;;;5167885;27;20180;-87
2021/01/13 04:19:48;;;;;;;27.95;11.07;;;;;;;;;;5148724;27;20233;-87
2021/01/13 04:22:16;;;;;;;18.52;10.48;;;;;;;;;;5167242;27;20178;-87
2021/01/13 04:24:43;;;;;;;40.63;11.88;;;;;;;;;;5145828;27;20190;-87
2021/01/13 04:27:10;;;;;;;22.70;10.63;;;;;;;;;;5159759;27;20185;-88
2021/01/13 04:29:36;;;;;;;17.25;9.55;;;;;;;;;;5160201;27;20169;-87
2021/01/13 04:32:03;;;;;;;16.52;9.23;;;;;;;;;;5148409;27;20520;-86
2021/01/13 04:34:30;;;;;;;33.00;11.32;;;;;;;;;;5148282;27;20257;-87
2021/01/13 04:36:57;;;;;;;19.75;10.20;;;;;;;;;;5145701;27;20178;-88
2021/01/13 04:39:23;;;;;;;21.15;10.27;;;;;;;;;;5163230;27;20249;-88
2021/01/13 04:42:00;;;;;;;21.25;10.00;;;;;;;;;;5143032;27;20174;-88
2021/01/13 04:44:30;;;;;;;26.75;10.68;;;;;;;;;;5143099;27;20181;-87
2021/01/13 04:46:58;;;;;;;20.95;10.52;;;;;;;;;;5148067;27;20178;-88
2021/01/13 04:49:26;;;;;;;20.23;9.48;;;;;;;;;;5147887;27;20186;-87
2021/01/13 04:51:56;;;;;;;25.13;9.48;;;;;;;;;;5167307;27;20250;-88
2021/01/13 04:54:23;;;;;;;23.98;10.50;;;;;;;;;;5164526;27;20236;-87
2021/01/13 04:57:03;;;;;;;30.05;11.38;;;;;;;;;;5142303;27;20280;-88
2021/01/13 04:59:48;;;;;;;28.48;10.73;;;;;;;;;;5147207;27;20181;-88
2021/01/13 05:02:17;;;;;;;21.08;9.55;;;;;;;;;;5147459;27;20178;-87
2021/01/13 05:04:55;;;;;;;22.40;10.65;;;;;;;;;;5161940;27;20185;-87
2021/01/13 05:07:34;;;;;;;28.75;10.88;;;;;;;;;;5148180;27;20177;-88
2021/01/13 05:10:03;;;;;;;27.90;10.20;;;;;;;;;;5146638;27;20181;-87
2021/01/13 05:12:44;;;;;;;25.50;10.68;;;;;;;;;;5146056;27;20237;-87
2021/01/13 05:15:14;;;;;;;20.98;10.80;;;;;;;;;;5147427;27;20185;-87
2021/01/13 05:17:49;;;;;;;30.17;11.68;;;;;;;;;;5143001;27;20285;-85
2021/01/13 05:20:35;;;;;;;28.55;11.38;;;;;;;;;;5147213;27;20665;-87
2021/01/13 05:23:01;;;;;;;20.85;10.88;;;;;;;;;;5144274;27;20182;-87
2021/01/13 05:25:38;;;;;;;27.60;11.20;;;;;;;;;;5165488;27;20639;-87
2021/01/13 05:28:07;;;;;;;18.42;10.15;;;;;;;;;;5154226;27;20242;-86
2021/01/13 05:30:34;;;;;;;19.83;10.95;;;;;;;;;;5145972;27;20186;-86
2021/01/13 05:33:00;;;;;;;23.33;12.50;;;;;;;;;;5160237;27;20201;-85
2021/01/13 05:35:30;;;;;;;20.83;10.20;;;;;;;;;;5160074;27;20180;-85
2021/01/13 05:38:05;;;;;;;21.88;10.55;;;;;;;;;;5141750;27;20177;-85
2021/01/13 05:40:31;;;;;;;21.77;10.93;;;;;;;;;;5142341;27;20241;-84
2021/01/13 05:42:57;;;;;;;18.92;11.65;;;;;;;;;;5130799;27;20182;-85
2021/01/13 05:45:25;;;;;;;25.08;11.73;;;;;;;;;;5146061;27;20578;-85
2021/01/13 05:47:53;;;;;;;29.27;11.00;;;;;;;;;;5144129;27;20182;-85
2021/01/13 05:50:19;;;;;;;25.55;10.55;;;;;;;;;;5153473;27;20182;-86
2021/01/13 05:52:49;;;;;;;22.63;10.55;;;;;;;;;;5153704;27;20198;-85
2021/01/13 05:55:16;;;;;;;19.45;10.63;;;;;;;;;;5155950;27;20238;-86
2021/01/13 05:57:52;;;;;;;23.88;11.30;;;;;;;;;;5135862;27;20209;-86
2021/01/13 06:00:19;;;;;;;20.50;10.27;;;;;;;;;;5144465;27;20267;-86
2021/01/13 06:02:47;;;;;;;33.15;11.68;;;;;;;;;;5142387;27;20585;-86
2021/01/13 06:05:13;;;;;;;26.85;11.90;;;;;;;;;;5163656;27;20261;-86
2021/01/13 06:07:42;;;;;;;27.48;11.05;;;;;;;;;;5145437;27;20185;-86
2021/01/13 06:10:08;;;;;;;22.70;11.10;;;;;;;;;;5164807;27;20227;-86
2021/01/13 06:12:36;;;;;;;23.92;11.30;;;;;;;;;;5162819;27;20597;-86
2021/01/13 06:15:02;;;;;;;28.38;12.10;;;;;;;;;;5165302;27;20222;-86
2021/01/13 06:17:28;;;;;;;27.13;12.00;;;;;;;;;;5146363;27;20257;-86
2021/01/13 06:19:55;;;;;;;23.98;12.48;;;;;;;;;;5144973;27;20238;-86
2021/01/13 06:22:31;;;;;;;26.15;12.38;;;;;;;;;;5145941;27;20181;-85
2021/01/13 06:24:58;;;;;;;40.75;14.70;;;;;;;;;;5145718;27;20181;-86
2021/01/13 06:27:29;;;;;;;37.05;12.15;;;;;;;;;;5159115;27;20654;-86
2021/01/13 06:30:03;;;;;;;32.45;12.98;;;;;;;;;;5139214;27;20209;-86
2021/01/13 06:32:33;;;;;;;35.92;13.45;;;;;;;;;;5146048;27;20215;-86
2021/01/13 06:35:04;;;;;;;31.33;14.00;;;;;;;;;;5145689;27;20209;-86
2021/01/13 06:37:38;;;;;;;29.23;15.00;;;;;;;;;;5146127;27;20184;-84
2021/01/13 06:40:12;;;;;;;31.75;12.90;;;;;;;;;;5159915;27;20192;-85
2021/01/13 06:42:38;;;;;;;35.00;11.82;;;;;;;;;;5164013;27;20181;-85
2021/01/13 06:45:04;;;;;;;29.40;12.15;;;;;;;;;;5146128;27;20249;-84
2021/01/13 06:47:30;;;;;;;30.65;14.40;;;;;;;;;;5137855;27;20186;-86
2021/01/13 06:49:56;;;;;;;33.13;14.90;;;;;;;;;;5146006;27;20234;-87
2021/01/13 06:52:34;;;;;;;31.33;14.30;;;;;;;;;;5140343;27;20498;-86
2021/01/13 06:55:01;;;;;;;46.22;16.70;;;;;;;;;;5146290;27;20430;-86
2021/01/13 06:57:28;;;;;;;44.45;14.48;;;;;;;;;;5144770;27;20186;-86
2021/01/13 06:59:55;;;;;;;33.53;15.85;;;;;;;;;;5134711;27;20178;-85
2021/01/13 07:02:31;;;;;;;48.70;16.38;;;;;;;;;;5145078;27;20181;-87
2021/01/13 07:04:57;;;;;;;43.88;16.83;;;;;;;;;;5138588;27;20178;-87
2021/01/13 07:07:23;;;;;;;32.97;14.10;;;;;;;;;;5138235;27;20181;-87
2021/01/13 07:09:50;;;;;;;49.67;16.85;;;;;;;;;;5145644;27;20189;-89
2021/01/13 07:12:18;;;;;;;43.58;15.65;;;;;;;;;;5144907;27;20351;-87
2021/01/13 07:14:45;;;;;;;41.58;16.38;;;;;;;;;;5147614;27;20183;-87
2021/01/13 07:17:13;;;;;;;42.85;15.80;;;;;;;;;;5145893;27;20190;-87
2021/01/13 07:19:44;;;;;;;34.80;15.02;;;;;;;;;;5142358;27;20196;-86
2021/01/13 07:22:11;;;;;;;35.47;14.05;;;;;;;;;;5148794;27;20173;-86
2021/01/13 07:24:37;;;;;;;31.20;14.88;;;;;;;;;;5144892;27;20178;-86
2021/01/13 07:27:03;;;;;;;35.65;14.98;;;;;;;;;;5149180;27;20209;-86
2021/01/13 07:29:30;;;;;;;33.97;13.25;;;;;;;;;;5167078;27;20181;-87
2021/01/13 07:31:57;;;;;;;44.25;14.80;;;;;;;;;;5146194;27;20702;-87
2021/01/13 07:34:38;;;;;;;42.80;15.13;;;;;;;;;;5149943;27;20201;-88
2021/01/13 07:37:04;;;;;;;29.13;12.57;;;;;;;;;;5144587;27;20182;-86
2021/01/13 07:39:42;;;;;;;28.95;12.48;;;;;;;;;;5167190;27;20182;-86
2021/01/13 07:42:08;;;;;;;31.15;12.57;;;;;;;;;;5149159;27;20245;-88
2021/01/13 07:44:40;;;;;;;29.05;14.05;;;;;;;;;;5143502;27;20166;-87
2021/01/13 07:47:20;;;;;;;34.70;12.40;;;;;;;;;;5143774;27;20227;-88
2021/01/13 07:49:54;;;;;;;30.10;12.70;;;;;;;;;;5162540;27;20192;-89
2021/01/13 07:52:23;;;;;;;34.83;13.55;;;;;;;;;;5151239;27;20189;-89
2021/01/13 07:54:50;;;;;;;48.10;13.65;;;;;;;;;;5143785;27;20250;-89
2021/01/13 07:57:23;;;;;;;35.20;12.95;;;;;;;;;;5141237;27;20174;-88
2021/01/13 08:00:08;;;;;;;27.95;12.73;;;;;;;;;;5145877;27;20175;-88
2021/01/13 08:02:34;;;;;;;39.00;14.98;;;;;;;;;;5149086;27;20182;-89
2021/01/13 08:05:15;;;;;;;27.70;12.48;;;;;;;;;;5144244;27;20205;-88
2021/01/13 08:07:42;;;;;;;34.30;12.10;;;;;;;;;;5140752;27;20179;-86
2021/01/13 08:10:50;;;;;;;39.60;13.18;;;;;;;;;;5088217;27;20560;-86
2021/01/13 08:13:36;;;;;;;34.08;12.40;;;;;;;;;;5081171;28;20180;-87
2021/01/13 08:16:11;;;;;;;33.85;15.07;;;;;;;;;;5111709;28;20172;-87
2021/01/13 08:18:50;;;;;;;41.13;12.93;;;;;;;;;;5080059;28;20187;-86
2021/01/13 08:24:15;;;;;;;38.83;13.43;;;;;;;;;;5080238;28;20381;-85
2021/01/13 08:26:41;;;;;;;38.85;13.48;;;;;;;;;;5077886;28;22004;-87
2021/01/13 08:29:16;;;;;;;34.53;12.18;;;;;;;;;;5076503;28;20229;-86
2021/01/13 08:31:48;;;;;;;28.27;12.18;;;;;;;;;;5089479;28;20208;-89
2021/01/13 08:34:18;;;;;;;279.65;69.43;;;;;;;;;;5069406;28;20196;-89
2021/01/13 08:37:07;;;;;;;166.50;52.20;;;;;;;;;;5077657;28;20192;-86
2021/01/13 08:39:33;;;;;;;117.32;37.85;;;;;;;;;;5077024;28;20189;-88
2021/01/13 08:42:21;;;;;;;108.00;28.92;;;;;;;;;;5076510;28;20177;-87
2021/01/13 08:44:48;;;;;;;89.22;22.58;;;;;;;;;;5109413;28;20176;-87
2021/01/13 08:47:14;;;;;;;79.20;23.50;;;;;;;;;;5077695;28;20181;-87
2021/01/13 08:49:43;;;;;;;59.83;18.92;;;;;;;;;;5076757;28;20200;-87
2021/01/13 08:52:26;;;;;;;52.13;19.00;;;;;;;;;;5075226;28;20258;-88
2021/01/13 08:54:55;;;;;;;56.63;17.98;;;;;;;;;;5097422;28;20185;-85
2021/01/13 08:57:21;;;;;;;59.25;19.55;;;;;;;;;;5076303;28;20181;-86
2021/01/13 08:59:48;;;;;;;47.38;17.38;;;;;;;;;;5077921;28;20180;-85
2021/01/13 09:02:15;;;;;;;50.80;18.35;;;;;;;;;;5064665;28;20708;-86
2021/01/13 09:04:52;;;;;;;56.42;16.92;;;;;;;;;;5075947;28;20193;-84
2021/01/13 09:07:38;;;;;;;46.13;16.88;;;;;;;;;;5078737;28;20204;-85
2021/01/13 09:10:08;;;;;;;45.75;15.90;;;;;;;;;;5071132;28;20216;-84
2021/01/13 09:12:38;;;;;;;43.72;16.83;;;;;;;;;;5076191;28;20185;-85
2021/01/13 09:15:07;;;;;;;47.60;15.98;;;;;;;;;;5075881;28;20641;-84
2021/01/13 09:17:40;;;;;;;51.10;16.90;;;;;;;;;;5078967;28;20180;-88
2021/01/13 09:20:16;;;;;;;47.83;15.73;;;;;;;;;;5074737;28;20349;-87
2021/01/13 09:22:47;;;;;;;42.00;15.40;;;;;;;;;;5062312;28;20199;-86
2021/01/13 09:25:15;;;;;;;41.10;15.35;;;;;;;;;;5061686;28;20239;-86
2021/01/13 09:27:44;;;;;;;37.63;13.20;;;;;;;;;;5061788;28;20194;-86
2021/01/13 09:30:11;;;;;;;42.65;13.68;;;;;;;;;;5065099;28;20209;-86
2021/01/13 09:32:57;;;;;;;32.00;11.90;;;;;;;;;;5067324;28;20173;-87
2021/01/13 09:35:30;;;;;;;32.75;11.82;;;;;;;;;;5064392;28;20173;-87
2021/01/13 09:37:58;;;;;;;21.63;10.63;;;;;;;;;;5057951;28;20253;-90
2021/01/13 09:40:24;;;;;;;26.23;9.32;;;;;;;;;;5087646;28;20197;-89
2021/01/13 09:42:57;;;;;;;21.55;8.15;;;;;;;;;;5104456;28;20193;-88
2021/01/13 09:45:24;;;;;;;20.00;8.43;;;;;;;;;;5097545;28;20193;-88
2021/01/13 09:47:50;;;;;;;15.52;7.00;;;;;;;;;;5099230;28;20181;-89
2021/01/13 09:50:20;;;;;;;18.35;8.18;;;;;;;;;;5050580;28;20205;-87
2021/01/13 09:52:47;;;;;;;20.55;7.70;;;;;;;;;;5071178;28;20266;-88
2021/01/13 09:55:13;;;;;;;14.07;6.68;;;;;;;;;;5065079;28;20227;-87
2021/01/13 09:57:40;;;;;;;10.75;5.35;;;;;;;;;;5094889;28;20189;-91
2021/01/13 10:00:10;;;;;;;13.30;4.57;;;;;;;;;;5063809;28;20181;-91
2021/01/13 10:02:37;;;;;;;6.85;4.60;;;;;;;;;;5094516;28;20183;-90
2021/01/13 10:05:09;;;;;;;8.10;4.65;;;;;;;;;;5061775;28;20203;-92
2021/01/13 10:07:36;;;;;;;8.18;4.45;;;;;;;;;;5063276;28;20189;-88
2021/01/13 10:10:04;;;;;;;5.68;3.40;;;;;;;;;;5063821;28;20233;-89
2021/01/13 10:12:37;;;;;;;9.23;4.30;;;;;;;;;;5086175;28;20190;-89
2021/01/13 10:15:07;;;;;;;7.72;3.58;;;;;;;;;;5088709;28;20173;-90
2021/01/13 10:17:34;;;;;;;5.45;3.75;;;;;;;;;;5098953;28;20203;-88
2021/01/13 10:20:10;;;;;;;4.20;2.97;;;;;;;;;;5053023;28;20185;-88
2021/01/13 10:22:38;;;;;;;8.65;3.45;;;;;;;;;;5092429;28;20180;-91
2021/01/13 10:25:04;;;;;;;9.25;4.25;;;;;;;;;;5055714;28;20177;-90
2021/01/13 10:27:30;;;;;;;7.00;3.70;;;;;;;;;;5076860;28;20193;-86
2021/01/13 10:29:56;;;;;;;7.38;3.97;;;;;;;;;;5063679;28;20209;-91
2021/01/13 10:32:22;;;;;;;7.00;3.88;;;;;;;;;;5072945;28;20208;-89
2021/01/13 10:34:52;;;;;;;8.63;4.22;;;;;;;;;;5084011;28;20189;-89
2021/01/13 10:37:18;;;;;;;8.57;4.18;;;;;;;;;;5061452;28;20169;-86
2021/01/13 10:39:44;;;;;;;11.55;5.20;;;;;;;;;;5073316;28;20192;-88
2021/01/13 10:42:11;;;;;;;7.57;4.53;;;;;;;;;;5063382;28;20272;-86
2021/01/13 10:44:37;;;;;;;10.10;4.97;;;;;;;;;;5096032;28;20181;-86
2021/01/13 10:47:02;;;;;;;6.93;4.28;;;;;;;;;;5061832;28;20195;-86
2021/01/13 10:49:33;;;;;;;10.97;4.80;;;;;;;;;;5061928;28;20238;-86
2021/01/13 10:52:11;;;;;;;7.32;3.60;;;;;;;;;;5058764;28;20655;-85
2021/01/13 10:54:38;;;;;;;6.07;4.00;;;;;;;;;;5074662;28;20195;-86
2021/01/13 10:57:06;;;;;;;6.65;3.85;;;;;;;;;;5069874;28;20187;-86
2021/01/13 10:59:32;;;;;;;6.35;3.08;;;;;;;;;;5057536;28;20213;-85
2021/01/13 11:02:06;;;;;;;6.93;3.20;;;;;;;;;;5088392;28;20193;-87
2021/01/13 11:04:36;;;;;;;9.23;4.10;;;;;;;;;;5060699;28;20687;-85
2021/01/13 11:07:09;;;;;;;8.00;3.60;;;;;;;;;;5082594;28;20181;-84
2021/01/13 11:09:36;;;;;;;8.98;3.22;;;;;;;;;;5090045;28;20232;-84
2021/01/13 11:12:03;;;;;;;3.72;2.50;;;;;;;;;;5072483;28;20258;-85
2021/01/13 11:14:29;;;;;;;2.60;2.00;;;;;;;;;;5097339;28;20173;-85
2021/01/13 11:17:05;;;;;;;3.15;1.90;;;;;;;;;;5097839;28;20192;-86
2021/01/13 11:19:31;;;;;;;5.78;2.35;;;;;;;;;;5066088;28;20226;-82
2021/01/13 11:21:58;;;;;;;4.85;2.03;;;;;;;;;;5070528;28;20211;-85
2021/01/13 11:24:28;;;;;;;3.10;1.70;;;;;;;;;;5094006;28;20908;-87
2021/01/13 11:26:56;;;;;;;1.90;1.10;;;;;;;;;;5095662;28;20189;-84
2021/01/13 11:29:26;;;;;;;2.05;1.50;;;;;;;;;;5097250;28;20219;-83
2021/01/13 11:31:52;;;;;;;3.28;1.60;;;;;;;;;;5064091;28;20215;-83
2021/01/13 11:34:22;;;;;;;6.07;1.60;;;;;;;;;;5056978;28;20637;-81
2021/01/13 11:37:16;;;;;;;1.63;1.20;;;;;;;;;;5061158;28;20324;-82
2021/01/13 11:39:52;;;;;;;2.63;1.33;;;;;;;;;;5091409;28;20190;-90
2021/01/13 11:42:18;;;;;;;3.90;1.17;;;;;;;;;;5061854;28;20199;-84
2021/01/13 11:45:16;;;;;;;1.08;0.90;;;;;;;;;;5073346;28;20176;-84
2021/01/13 11:47:46;;;;;;;3.10;0.90;;;;;;;;;;4977384;28;20188;-85
2021/01/13 11:50:16;;;;;;;2.72;0.90;;;;;;;;;;4966050;28;20219;-82
2021/01/13 11:52:46;;;;;;;2.80;1.00;;;;;;;;;;4981880;28;20176;-83
2021/01/13 11:55:12;;;;;;;1.23;0.90;;;;;;;;;;4982333;28;20187;-87
2021/01/13 11:57:39;;;;;;;1.55;1.10;;;;;;;;;;4966528;28;20204;-88
2021/01/13 12:03:19;;;;;;;1.88;1.00;;;;;;;;;;4975284;28;20710;-93
2021/01/13 12:05:47;;;;;;;2.22;1.17;;;;;;;;;;4998649;28;20231;-89
2021/01/13 12:08:17;;;;;;;1.55;0.93;;;;;;;;;;4959251;28;20191;-93
2021/01/13 12:10:44;;;;;;;2.97;1.30;;;;;;;;;;4968627;28;20224;-91
2021/01/13 12:13:19;;;;;;;1.98;1.10;;;;;;;;;;4960858;28;20199;-87
2021/01/13 12:15:46;;;;;;;2.30;1.30;;;;;;;;;;4998652;28;20730;-87
2021/01/13 12:18:21;;;;;;;1.95;1.50;;;;;;;;;;4998620;28;20171;-91
2021/01/13 12:20:47;;;;;;;2.42;1.05;;;;;;;;;;4995702;28;20186;-91
2021/01/13 12:23:17;;;;;;;1.90;1.10;;;;;;;;;;5009023;28;20189;-92
2021/01/13 12:25:43;;;;;;;1.67;1.58;;;;;;;;;;5061239;28;20439;-91
2021/01/13 12:28:09;;;;;;;1.30;1.20;;;;;;;;;;5060752;28;20213;-89
2021/01/13 12:30:35;;;;;;;3.78;1.35;;;;;;;;;;5057908;28;20570;-89
2021/01/13 12:33:02;;;;;;;1.40;1.30;;;;;;;;;;5061963;28;20185;-88
2021/01/13 12:35:29;;;;;;;1.58;1.25;;;;;;;;;;5092978;28;20172;-90
2021/01/13 12:37:57;;;;;;;2.25;1.15;;;;;;;;;;5057550;28;20185;-91
2021/01/13 12:40:31;;;;;;;5.85;1.40;;;;;;;;;;5061245;28;20189;-89
2021/01/13 12:43:10;;;;;;;3.92;1.30;;;;;;;;;;5103322;28;20186;-90
2021/01/13 12:45:36;;;;;;;2.10;1.33;;;;;;;;;;5094784;28;20185;-88
2021/01/13 12:48:02;;;;;;;3.00;1.75;;;;;;;;;;5062721;28;20192;-88
2021/01/13 12:50:28;;;;;;;2.70;1.70;;;;;;;;;;5061609;28;20200;-90
2021/01/13 12:52:56;;;;;;;2.70;1.52;;;;;;;;;;5059064;28;20183;-87
2021/01/13 12:55:22;;;;;;;2.13;1.33;;;;;;;;;;5059629;28;20211;-89
2021/01/13 12:57:48;;;;;;;1.80;1.40;;;;;;;;;;5064799;28;20193;-89
2021/01/13 13:00:14;;;;;;;3.23;1.40;;;;;;;;;;5064091;28;20181;-89
2021/01/13 13:02:41;;;;;;;2.25;1.00;;;;;;;;;;5103513;28;20450;-88
2021/01/13 13:05:08;;;;;;;3.33;1.20;;;;;;;;;;5062202;28;20191;-87
2021/01/13 13:07:34;;;;;;;1.10;1.00;;;;;;;;;;5063810;28;20185;-86
2021/01/13 13:10:00;;;;;;;2.38;1.52;;;;;;;;;;5107139;28;20217;-86
2021/01/13 13:12:34;;;;;;;1.90;1.15;;;;;;;;;;5089876;28;20186;-90
2021/01/13 13:15:09;;;;;;;1.80;1.35;;;;;;;;;;5097829;28;20244;-85
2021/01/13 13:17:40;;;;;;;2.55;1.00;;;;;;;;;;5068780;28;20188;-84
2021/01/13 13:20:06;;;;;;;2.03;1.30;;;;;;;;;;5094475;28;20181;-88
2021/01/13 13:22:32;;;;;;;2.75;1.27;;;;;;;;;;5072167;28;20260;-86
2021/01/13 13:24:58;;;;;;;1.75;1.20;;;;;;;;;;5094861;28;20208;-87
2021/01/13 13:27:25;;;;;;;2.10;1.77;;;;;;;;;;5072222;28;20720;-86
2021/01/13 13:29:56;;;;;;;2.70;1.20;;;;;;;;;;5066090;28;20486;-89
2021/01/13 13:32:22;;;;;;;1.50;1.10;;;;;;;;;;5058509;28;20185;-85
2021/01/13 13:34:48;;;;;;;1.10;1.00;;;;;;;;;;5093416;28;20200;-86
2021/01/13 13:37:24;;;;;;;1.73;0.95;;;;;;;;;;5064467;28;20173;-89
2021/01/13 13:39:50;;;;;;;1.20;1.10;;;;;;;;;;5096875;28;20235;-88
2021/01/13 13:42:19;;;;;;;1.00;0.90;;;;;;;;;;5061355;28;20195;-87
2021/01/13 13:44:49;;;;;;;1.55;1.33;;;;;;;;;;5098364;28;20220;-90
2021/01/13 13:47:15;;;;;;;2.15;0.95;;;;;;;;;;5063144;28;20181;-84
2021/01/13 13:50:01;;;;;;;3.38;2.03;;;;;;;;;;5062344;28;20276;-91
2021/01/13 13:52:27;;;;;;;8.43;6.97;;;;;;;;;;5066632;28;20252;-85
2021/01/13 13:54:53;;;;;;;4.00;3.60;;;;;;;;;;5062973;28;20185;-86
2021/01/13 13:57:19;;;;;;;1.60;1.30;;;;;;;;;;5060538;28;20389;-87
2021/01/13 13:59:45;;;;;;;2.45;2.25;;;;;;;;;;5098676;28;20204;-91
2021/01/13 14:03:50;;;;;;;1.08;0.98;;;;;;;;;;5173817;27;20992;-80
2021/01/13 14:06:26;;;;;;;2.50;2.30;;;;;;;;;;5143513;27;20178;-86
2021/01/13 14:08:52;;;;;;;1.23;1.00;;;;;;;;;;5166466;27;20172;-86
2021/01/13 14:11:18;;;;;;;3.03;0.98;;;;;;;;;;5147906;27;20184;-86
2021/01/13 14:13:44;;;;;;;4.13;2.28;;;;;;;;;;5147894;27;20189;-83
2021/01/13 14:16:10;;;;;;;1.10;1.00;;;;;;;;;;5145982;27;20177;-87
2021/01/13 14:18:36;;;;;;;0.85;0.85;;;;;;;;;;5158702;27;20186;-86
2021/01/13 14:22:43;;;;;;;1.10;1.00;;;;;;;;;;5075611;28;20566;-81
2021/01/13 14:25:10;;;;;;;1.27;0.90;;;;;;;;;;5065236;28;20541;-82
2021/01/13 14:27:36;;;;;;;2.22;1.35;;;;;;;;;;5056269;28;20219;-82
2021/01/13 14:30:02;;;;;;;0.87;0.77;;;;;;;;;;5056227;28;20181;-83
2021/01/13 14:32:28;;;;;;;2.67;2.47;;;;;;;;;;5067792;28;20435;-85
2021/01/13 14:34:54;;;;;;;1.40;1.23;;;;;;;;;;5058269;28;20196;-86
2021/01/13 14:38:52;;;;;;;1.40;0.93;;;;;;;;;;5116610;27;20506;-88
2021/01/13 14:41:18;;;;;;;4.82;2.35;;;;;;;;;;5100141;28;20175;-89
2021/01/13 14:43:46;;;;;;;1.55;0.80;;;;;;;;;;5102025;28;20183;-87
2021/01/13 14:46:13;;;;;;;2.58;2.20;;;;;;;;;;5102061;28;20171;-89
2021/01/13 14:48:45;;;;;;;1.05;0.90;;;;;;;;;;5100198;28;20195;-91
2021/01/13 14:54:07;;;;;;;3.55;2.42;;;;;;;;;;5115553;28;20274;-86
2021/01/13 14:56:33;;;;;;;2.72;1.63;;;;;;;;;;5092402;28;20171;-88